Terminal Aerodrome Forecast
Issued by NWS Cleveland, OH

Home | Current Version | Previous Version | Text Only | Print | Product List | Glossary On
Versions: 1 2 3 4 5 6 7 8 9 10 11 12 13 14 15 16 17 18 19 20
000
FTUS41 KCLE 240539
TAFCLE
TAF
KCLE 240539Z 2406/2512 24015G25KT P6SM BKN015 OVC035
      TEMPO 2406/2410 5SM -SHRA OVC015
     FM241300 22015G25KT P6SM SCT015 OVC040
      TEMPO 2413/2416 5SM -SHRA OVC015
     FM241600 22015G25KT P6SM BKN025
     FM241800 22015G25KT P6SM BKN035
     FM250700 22015KT 6SM -SHRA OVC025=

USA.gov is the U.S. government's official web portal to all federal, state and local government web resources and services.